sensor_id;sensor_type;location;lat;lon;timestamp;temperature;humidity
53410;DHT22;66590;50.734;4.246;2023-05-14T00:02:25;13.50;99.90
53410;DHT22;66590;50.734;4.246;2023-05-14T00:04:53;13.50;99.90
53410;DHT22;66590;50.734;4.246;2023-05-14T00:07:21;13.40;99.90
53410;DHT22;66590;50.734;4.246;2023-05-14T00:09:48;13.20;99.90
53410;DHT22;66590;50.734;4.246;2023-05-14T00:12:15;13.20;99.90
53410;DHT22;66590;50.734;4.246;2023-05-14T00:14:42;13.30;99.90
53410;DHT22;66590;50.734;4.246;2023-05-14T00:17:09;13.20;99.90
53410;DHT22;66590;50.734;4.246;2023-05-14T00:19:36;13.30;99.90
53410;DHT22;66590;50.734;4.246;2023-05-14T00:22:03;13.30;99.90
53410;DHT22;66590;50.734;4.246;2023-05-14T00:24:31;13.10;99.90
53410;DHT22;66590;50.734;4.246;2023-05-14T00:26:58;13.20;99.90
53410;DHT22;66590;50.734;4.246;2023-05-14T00:29:25;13.10;99.90
53410;DHT22;66590;50.734;4.246;2023-05-14T00:31:52;13.00;99.90
53410;DHT22;66590;50.734;4.246;2023-05-14T00:34:19;13.00;99.90
53410;DHT22;66590;50.734;4.246;2023-05-14T00:36:46;13.10;99.90
53410;DHT22;66590;50.734;4.246;2023-05-14T00:39:13;13.20;99.90
53410;DHT22;66590;50.734;4.246;2023-05-14T00:41:42;13.20;99.90
53410;DHT22;66590;50.734;4.246;2023-05-14T00:44:09;13.30;99.90
53410;DHT22;66590;50.734;4.246;2023-05-14T00:46:36;13.00;99.90
53410;DHT22;66590;50.734;4.246;2023-05-14T00:49:03;13.00;99.90
53410;DHT22;66590;50.734;4.246;2023-05-14T00:51:30;13.10;99.90
53410;DHT22;66590;50.734;4.246;2023-05-14T00:53:57;13.00;99.90
53410;DHT22;66590;50.734;4.246;2023-05-14T00:56:25;13.00;99.90
53410;DHT22;66590;50.734;4.246;2023-05-14T00:58:54;12.90;99.90
53410;DHT22;66590;50.734;4.246;2023-05-14T01:01:21;12.90;99.90
53410;DHT22;66590;50.734;4.246;2023-05-14T01:03:49;12.80;99.90
53410;DHT22;66590;50.734;4.246;2023-05-14T01:06:22;12.80;99.90
53410;DHT22;66590;50.734;4.246;2023-05-14T01:08:58;12.80;99.90
53410;DHT22;66590;50.734;4.246;2023-05-14T01:11:30;12.90;99.90
53410;DHT22;66590;50.734;4.246;2023-05-14T01:14:15;12.90;99.90
53410;DHT22;66590;50.734;4.246;2023-05-14T01:16:47;12.90;99.90
53410;DHT22;66590;50.734;4.246;2023-05-14T01:19:21;12.90;99.90
53410;DHT22;66590;50.734;4.246;2023-05-14T01:21:54;13.00;99.90
53410;DHT22;66590;50.734;4.246;2023-05-14T01:24:21;12.90;99.90
53410;DHT22;66590;50.734;4.246;2023-05-14T01:26:48;12.80;99.90
53410;DHT22;66590;50.734;4.246;2023-05-14T01:29:20;12.80;99.90
53410;DHT22;66590;50.734;4.246;2023-05-14T01:31:49;12.90;99.90
53410;DHT22;66590;50.734;4.246;2023-05-14T01:34:20;12.80;99.90
53410;DHT22;66590;50.734;4.246;2023-05-14T01:36:49;12.90;99.90
53410;DHT22;66590;50.734;4.246;2023-05-14T01:39:18;12.70;99.90
53410;DHT22;66590;50.734;4.246;2023-05-14T01:41:45;12.70;99.90
53410;DHT22;66590;50.734;4.246;2023-05-14T01:44:13;12.80;99.90
53410;DHT22;66590;50.734;4.246;2023-05-14T01:46:40;12.90;99.90
53410;DHT22;66590;50.734;4.246;2023-05-14T01:49:07;13.10;99.90
53410;DHT22;66590;50.734;4.246;2023-05-14T01:51:34;13.00;99.90
53410;DHT22;66590;50.734;4.246;2023-05-14T01:54:02;13.00;99.90
53410;DHT22;66590;50.734;4.246;2023-05-14T01:56:30;12.80;99.90
53410;DHT22;66590;50.734;4.246;2023-05-14T01:58:57;12.70;99.90
53410;DHT22;66590;50.734;4.246;2023-05-14T02:01:30;12.80;99.90
53410;DHT22;66590;50.734;4.246;2023-05-14T02:03:57;12.80;99.90
53410;DHT22;66590;50.734;4.246;2023-05-14T02:06:32;12.60;99.90
53410;DHT22;66590;50.734;4.246;2023-05-14T02:08:59;12.60;99.90
53410;DHT22;66590;50.734;4.246;2023-05-14T02:11:34;12.60;99.90
53410;DHT22;66590;50.734;4.246;2023-05-14T02:14:01;12.60;99.90
53410;DHT22;66590;50.734;4.246;2023-05-14T02:16:34;12.70;99.90
53410;DHT22;66590;50.734;4.246;2023-05-14T02:19:01;12.80;99.90
53410;DHT22;66590;50.734;4.246;2023-05-14T02:21:29;12.90;99.90
53410;DHT22;66590;50.734;4.246;2023-05-14T02:24:03;12.80;99.90
53410;DHT22;66590;50.734;4.246;2023-05-14T02:26:30;12.80;99.90
53410;DHT22;66590;50.734;4.246;2023-05-14T02:29:05;12.80;99.90
53410;DHT22;66590;50.734;4.246;2023-05-14T02:31:32;12.90;99.90
53410;DHT22;66590;50.734;4.246;2023-05-14T02:34:06;12.90;99.90
53410;DHT22;66590;50.734;4.246;2023-05-14T02:36:33;12.90;99.90
53410;DHT22;66590;50.734;4.246;2023-05-14T02:39:00;12.80;99.90
53410;DHT22;66590;50.734;4.246;2023-05-14T02:41:27;12.80;99.90
53410;DHT22;66590;50.734;4.246;2023-05-14T02:43:54;12.80;99.90
53410;DHT22;66590;50.734;4.246;2023-05-14T02:46:22;12.80;99.90
53410;DHT22;66590;50.734;4.246;2023-05-14T02:48:49;12.80;99.90
53410;DHT22;66590;50.734;4.246;2023-05-14T02:51:18;12.80;99.90
53410;DHT22;66590;50.734;4.246;2023-05-14T02:53:45;12.70;99.90
53410;DHT22;66590;50.734;4.246;2023-05-14T02:56:12;12.70;99.90
53410;DHT22;66590;50.734;4.246;2023-05-14T02:58:39;12.80;99.90
53410;DHT22;66590;50.734;4.246;2023-05-14T03:01:06;13.00;99.90
53410;DHT22;66590;50.734;4.246;2023-05-14T03:03:35;13.00;99.90
53410;DHT22;66590;50.734;4.246;2023-05-14T03:06:03;13.00;99.90
53410;DHT22;66590;50.734;4.246;2023-05-14T03:08:29;12.90;99.90
53410;DHT22;66590;50.734;4.246;2023-05-14T03:10:56;12.80;99.90
53410;DHT22;66590;50.734;4.246;2023-05-14T03:13:23;12.70;99.90
53410;DHT22;66590;50.734;4.246;2023-05-14T03:15:50;12.70;99.90
53410;DHT22;66590;50.734;4.246;2023-05-14T03:18:17;12.80;99.90
53410;DHT22;66590;50.734;4.246;2023-05-14T03:20:46;12.80;99.90
53410;DHT22;66590;50.734;4.246;2023-05-14T03:23:13;12.80;99.90
53410;DHT22;66590;50.734;4.246;2023-05-14T03:25:41;12.80;99.90
53410;DHT22;66590;50.734;4.246;2023-05-14T03:28:08;12.80;99.90
53410;DHT22;66590;50.734;4.246;2023-05-14T03:30:35;12.90;99.90
53410;DHT22;66590;50.734;4.246;2023-05-14T03:33:02;12.80;99.90
53410;DHT22;66590;50.734;4.246;2023-05-14T03:35:29;12.90;99.90
53410;DHT22;66590;50.734;4.246;2023-05-14T03:37:58;12.90;99.90
53410;DHT22;66590;50.734;4.246;2023-05-14T03:40:25;12.90;99.90
53410;DHT22;66590;50.734;4.246;2023-05-14T03:42:52;13.00;99.90
53410;DHT22;66590;50.734;4.246;2023-05-14T03:45:19;13.00;99.90
53410;DHT22;66590;50.734;4.246;2023-05-14T03:47:46;13.00;99.90
53410;DHT22;66590;50.734;4.246;2023-05-14T03:50:14;12.90;99.90
53410;DHT22;66590;50.734;4.246;2023-05-14T03:52:41;13.10;99.90
53410;DHT22;66590;50.734;4.246;2023-05-14T03:55:09;13.00;99.90
53410;DHT22;66590;50.734;4.246;2023-05-14T03:57:36;12.90;99.90
53410;DHT22;66590;50.734;4.246;2023-05-14T04:00:04;12.90;99.90
53410;DHT22;66590;50.734;4.246;2023-05-14T04:02:31;12.90;99.90
53410;DHT22;66590;50.734;4.246;2023-05-14T04:04:58;13.00;99.90
53410;DHT22;66590;50.734;4.246;2023-05-14T04:07:25;13.00;99.90
53410;DHT22;66590;50.734;4.246;2023-05-14T04:09:52;12.90;99.90
53410;DHT22;66590;50.734;4.246;2023-05-14T04:12:21;12.90;99.90
53410;DHT22;66590;50.734;4.246;2023-05-14T04:14:48;12.80;99.90
53410;DHT22;66590;50.734;4.246;2023-05-14T04:17:15;12.80;99.90
53410;DHT22;66590;50.734;4.246;2023-05-14T04:19:42;12.80;99.90
53410;DHT22;66590;50.734;4.246;2023-05-14T04:22:09;12.80;99.90
53410;DHT22;66590;50.734;4.246;2023-05-14T04:24:36;12.80;99.90
53410;DHT22;66590;50.734;4.246;2023-05-14T04:27:04;12.70;99.90
53410;DHT22;66590;50.734;4.246;2023-05-14T04:29:32;12.80;99.90
53410;DHT22;66590;50.734;4.246;2023-05-14T04:31:59;12.80;99.90
53410;DHT22;66590;50.734;4.246;2023-05-14T04:34:26;12.80;99.90
53410;DHT22;66590;50.734;4.246;2023-05-14T04:36:53;12.80;99.90
53410;DHT22;66590;50.734;4.246;2023-05-14T04:39:20;12.80;99.90
53410;DHT22;66590;50.734;4.246;2023-05-14T04:41:47;12.90;99.90
53410;DHT22;66590;50.734;4.246;2023-05-14T04:44:14;12.90;99.90
53410;DHT22;66590;50.734;4.246;2023-05-14T04:46:43;12.80;99.90
53410;DHT22;66590;50.734;4.246;2023-05-14T04:49:10;12.80;99.90
53410;DHT22;66590;50.734;4.246;2023-05-14T04:51:37;12.80;99.90
53410;DHT22;66590;50.734;4.246;2023-05-14T04:54:04;13.10;99.90
53410;DHT22;66590;50.734;4.246;2023-05-14T04:56:31;13.00;99.90
53410;DHT22;66590;50.734;4.246;2023-05-14T04:58:58;13.00;99.90
53410;DHT22;66590;50.734;4.246;2023-05-14T05:01:25;13.00;99.90
53410;DHT22;66590;50.734;4.246;2023-05-14T05:03:53;12.90;99.90
53410;DHT22;66590;50.734;4.246;2023-05-14T05:06:20;12.90;99.90
53410;DHT22;66590;50.734;4.246;2023-05-14T05:08:47;12.90;99.90
53410;DHT22;66590;50.734;4.246;2023-05-14T05:11:14;13.00;99.90
53410;DHT22;66590;50.734;4.246;2023-05-14T05:13:42;13.10;99.90
53410;DHT22;66590;50.734;4.246;2023-05-14T05:16:09;13.10;99.90
53410;DHT22;66590;50.734;4.246;2023-05-14T05:18:36;13.10;99.90
53410;DHT22;66590;50.734;4.246;2023-05-14T05:21:04;13.10;99.90
53410;DHT22;66590;50.734;4.246;2023-05-14T05:23:31;13.00;99.90
53410;DHT22;66590;50.734;4.246;2023-05-14T05:25:58;13.10;99.90
53410;DHT22;66590;50.734;4.246;2023-05-14T05:28:25;13.20;99.90
53410;DHT22;66590;50.734;4.246;2023-05-14T05:30:52;13.30;99.90
53410;DHT22;66590;50.734;4.246;2023-05-14T05:33:19;13.40;99.90
53410;DHT22;66590;50.734;4.246;2023-05-14T05:35:46;13.30;99.90
53410;DHT22;66590;50.734;4.246;2023-05-14T05:38:14;13.20;99.90
53410;DHT22;66590;50.734;4.246;2023-05-14T05:40:41;13.30;99.90
53410;DHT22;66590;50.734;4.246;2023-05-14T05:43:08;13.40;99.90
53410;DHT22;66590;50.734;4.246;2023-05-14T05:45:35;13.40;99.90
53410;DHT22;66590;50.734;4.246;2023-05-14T05:48:02;13.00;99.90
53410;DHT22;66590;50.734;4.246;2023-05-14T05:50:30;13.00;99.90
53410;DHT22;66590;50.734;4.246;2023-05-14T05:52:57;13.00;99.90
53410;DHT22;66590;50.734;4.246;2023-05-14T05:55:25;12.90;99.90
53410;DHT22;66590;50.734;4.246;2023-05-14T05:57:52;12.80;99.90
53410;DHT22;66590;50.734;4.246;2023-05-14T06:00:19;12.70;99.90
53410;DHT22;66590;50.734;4.246;2023-05-14T06:02:47;12.60;99.90
53410;DHT22;66590;50.734;4.246;2023-05-14T06:05:14;12.70;99.90
53410;DHT22;66590;50.734;4.246;2023-05-14T06:07:41;12.80;99.90
53410;DHT22;66590;50.734;4.246;2023-05-14T06:10:09;12.80;99.90
53410;DHT22;66590;50.734;4.246;2023-05-14T06:12:37;12.70;99.90
53410;DHT22;66590;50.734;4.246;2023-05-14T06:15:05;12.60;99.90
53410;DHT22;66590;50.734;4.246;2023-05-14T06:17:32;12.70;99.90
53410;DHT22;66590;50.734;4.246;2023-05-14T06:19:59;12.70;99.90
53410;DHT22;66590;50.734;4.246;2023-05-14T06:22:27;12.90;99.90
53410;DHT22;66590;50.734;4.246;2023-05-14T06:24:53;13.00;99.90
53410;DHT22;66590;50.734;4.246;2023-05-14T06:27:20;13.10;99.90
53410;DHT22;66590;50.734;4.246;2023-05-14T06:29:49;13.20;99.90
53410;DHT22;66590;50.734;4.246;2023-05-14T06:32:16;13.10;99.90
53410;DHT22;66590;50.734;4.246;2023-05-14T06:34:43;13.00;99.90
53410;DHT22;66590;50.734;4.246;2023-05-14T06:37:10;13.00;99.90
53410;DHT22;66590;50.734;4.246;2023-05-14T06:39:38;13.20;99.90
53410;DHT22;66590;50.734;4.246;2023-05-14T06:42:05;13.30;99.90
53410;DHT22;66590;50.734;4.246;2023-05-14T06:44:32;13.50;99.90
53410;DHT22;66590;50.734;4.246;2023-05-14T06:47:00;13.50;99.90
53410;DHT22;66590;50.734;4.246;2023-05-14T06:49:27;13.70;99.90
53410;DHT22;66590;50.734;4.246;2023-05-14T06:51:54;13.80;99.90
53410;DHT22;66590;50.734;4.246;2023-05-14T06:54:21;13.60;99.90
53410;DHT22;66590;50.734;4.246;2023-05-14T06:56:48;13.60;99.90
53410;DHT22;66590;50.734;4.246;2023-05-14T06:59:15;13.50;99.90
53410;DHT22;66590;50.734;4.246;2023-05-14T07:01:42;13.30;99.90
53410;DHT22;66590;50.734;4.246;2023-05-14T07:04:11;13.30;99.90
53410;DHT22;66590;50.734;4.246;2023-05-14T07:06:38;13.10;99.90
53410;DHT22;66590;50.734;4.246;2023-05-14T07:09:05;12.90;99.90
53410;DHT22;66590;50.734;4.246;2023-05-14T07:11:32;12.90;99.90
53410;DHT22;66590;50.734;4.246;2023-05-14T07:13:59;13.00;99.90
53410;DHT22;66590;50.734;4.246;2023-05-14T07:16:26;12.90;99.90
53410;DHT22;66590;50.734;4.246;2023-05-14T07:18:53;13.10;99.90
53410;DHT22;66590;50.734;4.246;2023-05-14T07:21:22;13.10;99.90
53410;DHT22;66590;50.734;4.246;2023-05-14T07:23:49;13.20;99.90
53410;DHT22;66590;50.734;4.246;2023-05-14T07:26:16;13.20;99.90
53410;DHT22;66590;50.734;4.246;2023-05-14T07:28:43;13.20;99.90
53410;DHT22;66590;50.734;4.246;2023-05-14T07:31:10;13.30;99.90
53410;DHT22;66590;50.734;4.246;2023-05-14T07:33:37;13.30;99.90
53410;DHT22;66590;50.734;4.246;2023-05-14T07:36:05;13.10;99.90
53410;DHT22;66590;50.734;4.246;2023-05-14T07:38:33;13.10;99.90
53410;DHT22;66590;50.734;4.246;2023-05-14T07:41:00;13.20;99.90
53410;DHT22;66590;50.734;4.246;2023-05-14T07:43:27;13.30;99.90
53410;DHT22;66590;50.734;4.246;2023-05-14T07:45:54;13.50;99.90
53410;DHT22;66590;50.734;4.246;2023-05-14T07:48:21;13.30;99.90
53410;DHT22;66590;50.734;4.246;2023-05-14T07:50:49;13.50;99.90
53410;DHT22;66590;50.734;4.246;2023-05-14T07:53:16;13.60;99.90
53410;DHT22;66590;50.734;4.246;2023-05-14T07:55:45;13.50;99.90
53410;DHT22;66590;50.734;4.246;2023-05-14T07:58:12;13.50;99.90
53410;DHT22;66590;50.734;4.246;2023-05-14T08:00:39;13.50;99.90
53410;DHT22;66590;50.734;4.246;2023-05-14T08:03:06;13.70;99.90
53410;DHT22;66590;50.734;4.246;2023-05-14T08:05:33;13.70;99.90
53410;DHT22;66590;50.734;4.246;2023-05-14T08:08:00;13.80;99.90
53410;DHT22;66590;50.734;4.246;2023-05-14T08:10:27;13.90;99.90
53410;DHT22;66590;50.734;4.246;2023-05-14T08:12:56;13.70;99.90
53410;DHT22;66590;50.734;4.246;2023-05-14T08:15:23;13.80;99.90
53410;DHT22;66590;50.734;4.246;2023-05-14T08:17:53;13.90;99.90
53410;DHT22;66590;50.734;4.246;2023-05-14T08:20:20;14.00;99.90
53410;DHT22;66590;50.734;4.246;2023-05-14T08:22:48;14.30;99.90
53410;DHT22;66590;50.734;4.246;2023-05-14T08:25:15;14.30;99.90
53410;DHT22;66590;50.734;4.246;2023-05-14T08:27:42;14.10;99.90
53410;DHT22;66590;50.734;4.246;2023-05-14T08:30:11;14.00;99.90
53410;DHT22;66590;50.734;4.246;2023-05-14T08:32:38;13.90;99.90
53410;DHT22;66590;50.734;4.246;2023-05-14T08:35:06;13.90;99.90
53410;DHT22;66590;50.734;4.246;2023-05-14T08:37:33;14.00;99.90
53410;DHT22;66590;50.734;4.246;2023-05-14T08:40:00;14.20;99.90
53410;DHT22;66590;50.734;4.246;2023-05-14T08:42:28;14.50;99.90
53410;DHT22;66590;50.734;4.246;2023-05-14T08:44:59;14.70;99.90
53410;DHT22;66590;50.734;4.246;2023-05-14T08:47:29;14.60;99.90
53410;DHT22;66590;50.734;4.246;2023-05-14T08:50:00;14.60;99.90
53410;DHT22;66590;50.734;4.246;2023-05-14T08:52:28;14.90;99.90
53410;DHT22;66590;50.734;4.246;2023-05-14T08:54:55;15.50;99.90
53410;DHT22;66590;50.734;4.246;2023-05-14T08:57:25;15.80;99.90
53410;DHT22;66590;50.734;4.246;2023-05-14T08:59:53;15.60;99.90
53410;DHT22;66590;50.734;4.246;2023-05-14T09:02:22;15.60;99.90
53410;DHT22;66590;50.734;4.246;2023-05-14T09:04:55;15.70;99.90
53410;DHT22;66590;50.734;4.246;2023-05-14T09:07:22;15.70;99.90
53410;DHT22;66590;50.734;4.246;2023-05-14T09:09:50;15.60;99.90
53410;DHT22;66590;50.734;4.246;2023-05-14T09:12:18;16.00;99.90
53410;DHT22;66590;50.734;4.246;2023-05-14T09:14:48;16.30;99.90
53410;DHT22;66590;50.734;4.246;2023-05-14T09:17:15;16.20;99.90
53410;DHT22;66590;50.734;4.246;2023-05-14T09:19:43;15.90;99.90
53410;DHT22;66590;50.734;4.246;2023-05-14T09:22:13;16.20;99.90
53410;DHT22;66590;50.734;4.246;2023-05-14T09:24:40;16.70;99.90
53410;DHT22;66590;50.734;4.246;2023-05-14T09:27:08;17.30;99.90
53410;DHT22;66590;50.734;4.246;2023-05-14T09:29:36;17.60;99.90
53410;DHT22;66590;50.734;4.246;2023-05-14T09:32:03;17.60;99.90
53410;DHT22;66590;50.734;4.246;2023-05-14T09:34:32;17.60;99.90
53410;DHT22;66590;50.734;4.246;2023-05-14T09:37:01;17.60;99.90
53410;DHT22;66590;50.734;4.246;2023-05-14T09:39:33;17.40;99.90
53410;DHT22;66590;50.734;4.246;2023-05-14T09:42:00;17.30;99.90
53410;DHT22;66590;50.734;4.246;2023-05-14T09:44:27;17.30;99.90
53410;DHT22;66590;50.734;4.246;2023-05-14T09:46:54;16.90;99.90
53410;DHT22;66590;50.734;4.246;2023-05-14T09:49:22;16.70;99.90
53410;DHT22;66590;50.734;4.246;2023-05-14T09:51:49;16.90;99.90
53410;DHT22;66590;50.734;4.246;2023-05-14T09:54:16;17.50;99.90
53410;DHT22;66590;50.734;4.246;2023-05-14T09:56:45;17.80;99.90
53410;DHT22;66590;50.734;4.246;2023-05-14T09:59:12;18.20;99.90
53410;DHT22;66590;50.734;4.246;2023-05-14T10:01:41;19.00;99.90
53410;DHT22;66590;50.734;4.246;2023-05-14T10:04:10;19.20;99.90
53410;DHT22;66590;50.734;4.246;2023-05-14T10:06:38;19.20;99.90
53410;DHT22;66590;50.734;4.246;2023-05-14T10:09:10;19.50;99.90
53410;DHT22;66590;50.734;4.246;2023-05-14T10:11:41;19.50;99.90
53410;DHT22;66590;50.734;4.246;2023-05-14T10:14:13;19.00;99.90
53410;DHT22;66590;50.734;4.246;2023-05-14T10:16:44;18.60;99.90
53410;DHT22;66590;50.734;4.246;2023-05-14T10:19:15;18.10;99.90
53410;DHT22;66590;50.734;4.246;2023-05-14T10:21:44;18.00;99.90
53410;DHT22;66590;50.734;4.246;2023-05-14T10:24:13;18.20;99.90
53410;DHT22;66590;50.734;4.246;2023-05-14T10:26:41;17.90;99.90
53410;DHT22;66590;50.734;4.246;2023-05-14T10:29:10;17.40;99.90
53410;DHT22;66590;50.734;4.246;2023-05-14T10:31:48;18.00;99.90
53410;DHT22;66590;50.734;4.246;2023-05-14T10:34:32;18.40;99.90
53410;DHT22;66590;50.734;4.246;2023-05-14T10:37:00;19.10;99.90
53410;DHT22;66590;50.734;4.246;2023-05-14T10:39:44;19.70;99.90
53410;DHT22;66590;50.734;4.246;2023-05-14T10:42:13;20.40;99.90
53410;DHT22;66590;50.734;4.246;2023-05-14T10:44:47;20.00;99.90
53410;DHT22;66590;50.734;4.246;2023-05-14T10:47:15;19.00;99.90
53410;DHT22;66590;50.734;4.246;2023-05-14T10:49:43;19.00;99.90
53410;DHT22;66590;50.734;4.246;2023-05-14T10:52:11;19.70;99.90
53410;DHT22;66590;50.734;4.246;2023-05-14T10:54:38;19.50;99.90
53410;DHT22;66590;50.734;4.246;2023-05-14T10:57:10;19.50;99.90
53410;DHT22;66590;50.734;4.246;2023-05-14T10:59:40;19.00;99.90
53410;DHT22;66590;50.734;4.246;2023-05-14T11:02:18;18.90;99.90
53410;DHT22;66590;50.734;4.246;2023-05-14T11:04:52;19.20;99.90
53410;DHT22;66590;50.734;4.246;2023-05-14T11:07:23;19.50;99.90
53410;DHT22;66590;50.734;4.246;2023-05-14T11:09:59;19.40;99.90
53410;DHT22;66590;50.734;4.246;2023-05-14T11:12:27;19.60;99.90
53410;DHT22;66590;50.734;4.246;2023-05-14T11:14:56;19.80;99.90
53410;DHT22;66590;50.734;4.246;2023-05-14T11:17:25;19.60;99.90
53410;DHT22;66590;50.734;4.246;2023-05-14T11:19:52;19.80;99.90
53410;DHT22;66590;50.734;4.246;2023-05-14T11:22:19;20.20;99.90
53410;DHT22;66590;50.734;4.246;2023-05-14T11:24:46;20.40;99.90
53410;DHT22;66590;50.734;4.246;2023-05-14T11:27:13;20.70;99.90
53410;DHT22;66590;50.734;4.246;2023-05-14T11:29:43;20.90;99.90
53410;DHT22;66590;50.734;4.246;2023-05-14T11:32:10;21.40;99.90
53410;DHT22;66590;50.734;4.246;2023-05-14T11:34:39;21.40;99.90
53410;DHT22;66590;50.734;4.246;2023-05-14T11:37:07;21.20;99.90
53410;DHT22;66590;50.734;4.246;2023-05-14T11:39:35;20.70;99.90
53410;DHT22;66590;50.734;4.246;2023-05-14T11:42:03;20.70;99.90
53410;DHT22;66590;50.734;4.246;2023-05-14T11:44:31;20.80;99.90
53410;DHT22;66590;50.734;4.246;2023-05-14T11:46:58;21.20;99.90
53410;DHT22;66590;50.734;4.246;2023-05-14T11:49:26;21.90;99.90
53410;DHT22;66590;50.734;4.246;2023-05-14T11:51:57;22.30;99.90
53410;DHT22;66590;50.734;4.246;2023-05-14T11:54:25;22.40;99.90
53410;DHT22;66590;50.734;4.246;2023-05-14T11:56:54;21.70;99.90
53410;DHT22;66590;50.734;4.246;2023-05-14T11:59:23;21.40;99.90
53410;DHT22;66590;50.734;4.246;2023-05-14T12:01:50;20.80;99.90
53410;DHT22;66590;50.734;4.246;2023-05-14T12:04:17;21.50;99.90
53410;DHT22;66590;50.734;4.246;2023-05-14T12:06:44;21.80;99.90
53410;DHT22;66590;50.734;4.246;2023-05-14T12:09:15;21.80;99.90
53410;DHT22;66590;50.734;4.246;2023-05-14T12:11:42;21.60;99.90
53410;DHT22;66590;50.734;4.246;2023-05-14T12:14:10;20.40;99.90
53410;DHT22;66590;50.734;4.246;2023-05-14T12:16:39;20.70;99.90
53410;DHT22;66590;50.734;4.246;2023-05-14T12:19:08;20.80;99.90
53410;DHT22;66590;50.734;4.246;2023-05-14T12:21:35;21.10;99.90
53410;DHT22;66590;50.734;4.246;2023-05-14T12:24:03;21.20;99.90
53410;DHT22;66590;50.734;4.246;2023-05-14T12:26:33;21.30;99.90
53410;DHT22;66590;50.734;4.246;2023-05-14T12:29:01;21.80;99.90
53410;DHT22;66590;50.734;4.246;2023-05-14T12:31:28;21.80;99.90
53410;DHT22;66590;50.734;4.246;2023-05-14T12:33:56;21.90;99.90
53410;DHT22;66590;50.734;4.246;2023-05-14T12:36:23;22.20;99.90
53410;DHT22;66590;50.734;4.246;2023-05-14T12:38:56;22.60;99.90
53410;DHT22;66590;50.734;4.246;2023-05-14T12:41:23;22.60;99.90
53410;DHT22;66590;50.734;4.246;2023-05-14T12:43:52;22.90;99.90
53410;DHT22;66590;50.734;4.246;2023-05-14T12:46:19;23.00;99.90
53410;DHT22;66590;50.734;4.246;2023-05-14T12:48:46;22.50;99.90
53410;DHT22;66590;50.734;4.246;2023-05-14T12:51:13;22.50;99.90
53410;DHT22;66590;50.734;4.246;2023-05-14T12:53:40;22.30;99.90
53410;DHT22;66590;50.734;4.246;2023-05-14T12:56:07;22.70;99.90
53410;DHT22;66590;50.734;4.246;2023-05-14T12:58:34;22.70;99.90
53410;DHT22;66590;50.734;4.246;2023-05-14T13:01:03;22.90;99.90
53410;DHT22;66590;50.734;4.246;2023-05-14T13:03:31;22.20;99.90
53410;DHT22;66590;50.734;4.246;2023-05-14T13:05:58;21.90;99.90
53410;DHT22;66590;50.734;4.246;2023-05-14T13:08:25;21.80;99.90
53410;DHT22;66590;50.734;4.246;2023-05-14T13:10:53;21.70;99.90
53410;DHT22;66590;50.734;4.246;2023-05-14T13:13:21;22.20;99.90
53410;DHT22;66590;50.734;4.246;2023-05-14T13:15:48;22.10;99.90
53410;DHT22;66590;50.734;4.246;2023-05-14T13:18:17;21.90;99.90
53410;DHT22;66590;50.734;4.246;2023-05-14T13:20:44;21.90;99.90
53410;DHT22;66590;50.734;4.246;2023-05-14T13:23:12;21.90;99.90
53410;DHT22;66590;50.734;4.246;2023-05-14T13:25:39;22.00;99.90
53410;DHT22;66590;50.734;4.246;2023-05-14T13:28:06;22.20;99.90
53410;DHT22;66590;50.734;4.246;2023-05-14T13:30:33;22.30;99.90
53410;DHT22;66590;50.734;4.246;2023-05-14T13:33:01;22.70;99.90
53410;DHT22;66590;50.734;4.246;2023-05-14T13:35:29;22.80;99.90
53410;DHT22;66590;50.734;4.246;2023-05-14T13:37:56;22.90;99.90
53410;DHT22;66590;50.734;4.246;2023-05-14T13:40:23;22.80;99.90
53410;DHT22;66590;50.734;4.246;2023-05-14T13:42:50;22.60;99.90
53410;DHT22;66590;50.734;4.246;2023-05-14T13:45:17;22.10;99.90
53410;DHT22;66590;50.734;4.246;2023-05-14T13:47:44;22.40;99.90
53410;DHT22;66590;50.734;4.246;2023-05-14T13:50:11;22.20;99.90
53410;DHT22;66590;50.734;4.246;2023-05-14T13:52:40;21.80;99.90
53410;DHT22;66590;50.734;4.246;2023-05-14T13:55:08;21.70;99.90
53410;DHT22;66590;50.734;4.246;2023-05-14T13:57:35;21.90;99.90
53410;DHT22;66590;50.734;4.246;2023-05-14T14:00:02;21.90;99.90
53410;DHT22;66590;50.734;4.246;2023-05-14T14:02:29;22.30;99.90
53410;DHT22;66590;50.734;4.246;2023-05-14T14:04:57;22.50;99.90
53410;DHT22;66590;50.734;4.246;2023-05-14T14:07:24;22.60;99.90
53410;DHT22;66590;50.734;4.246;2023-05-14T14:09:53;22.80;99.90
53410;DHT22;66590;50.734;4.246;2023-05-14T14:12:20;22.80;99.90
53410;DHT22;66590;50.734;4.246;2023-05-14T14:14:47;22.90;99.90
53410;DHT22;66590;50.734;4.246;2023-05-14T14:17:14;23.20;99.90
53410;DHT22;66590;50.734;4.246;2023-05-14T14:19:41;23.40;99.90
53410;DHT22;66590;50.734;4.246;2023-05-14T14:22:08;22.80;99.90
53410;DHT22;66590;50.734;4.246;2023-05-14T14:24:35;22.80;99.90
53410;DHT22;66590;50.734;4.246;2023-05-14T14:27:04;23.00;99.90
53410;DHT22;66590;50.734;4.246;2023-05-14T14:29:31;23.20;99.90
53410;DHT22;66590;50.734;4.246;2023-05-14T14:31:58;23.30;99.90
53410;DHT22;66590;50.734;4.246;2023-05-14T14:34:25;23.30;99.90
53410;DHT22;66590;50.734;4.246;2023-05-14T14:36:52;23.20;99.90
53410;DHT22;66590;50.734;4.246;2023-05-14T14:39:19;23.20;99.90
53410;DHT22;66590;50.734;4.246;2023-05-14T14:41:46;23.50;99.90
53410;DHT22;66590;50.734;4.246;2023-05-14T14:44:15;23.50;99.90
53410;DHT22;66590;50.734;4.246;2023-05-14T14:46:42;22.80;99.90
53410;DHT22;66590;50.734;4.246;2023-05-14T14:49:09;22.50;99.90
53410;DHT22;66590;50.734;4.246;2023-05-14T14:51:36;21.90;99.90
53410;DHT22;66590;50.734;4.246;2023-05-14T14:54:03;22.00;99.90
53410;DHT22;66590;50.734;4.246;2023-05-14T14:56:30;22.00;99.90
53410;DHT22;66590;50.734;4.246;2023-05-14T14:58:58;21.80;99.90
53410;DHT22;66590;50.734;4.246;2023-05-14T15:01:26;21.70;99.90
53410;DHT22;66590;50.734;4.246;2023-05-14T15:03:53;21.90;99.90
53410;DHT22;66590;50.734;4.246;2023-05-14T15:06:20;21.90;99.90
53410;DHT22;66590;50.734;4.246;2023-05-14T15:08:47;22.00;99.90
53410;DHT22;66590;50.734;4.246;2023-05-14T15:11:15;21.90;99.90
53410;DHT22;66590;50.734;4.246;2023-05-14T15:13:42;22.00;99.90
53410;DHT22;66590;50.734;4.246;2023-05-14T15:16:09;22.00;99.90
53410;DHT22;66590;50.734;4.246;2023-05-14T15:18:37;21.90;99.90
53410;DHT22;66590;50.734;4.246;2023-05-14T15:21:04;21.80;99.90
53410;DHT22;66590;50.734;4.246;2023-05-14T15:23:31;21.80;99.90
53410;DHT22;66590;50.734;4.246;2023-05-14T15:25:58;21.90;99.90
53410;DHT22;66590;50.734;4.246;2023-05-14T15:28:25;21.80;99.90
53410;DHT22;66590;50.734;4.246;2023-05-14T15:30:52;21.70;99.90
53410;DHT22;66590;50.734;4.246;2023-05-14T15:33:19;21.60;99.90
53410;DHT22;66590;50.734;4.246;2023-05-14T15:35:47;21.30;99.90